createdAt,value
2024-03-07T00:00:56.341Z,8.70
2024-03-07T00:03:27.177Z,10.30
2024-03-07T00:05:57.698Z,7.90
2024-03-07T00:08:28.116Z,8.70
2024-03-07T00:11:00.804Z,7.23
2024-03-07T00:13:30.822Z,10.30
2024-03-07T00:16:01.201Z,8.43
2024-03-07T00:18:31.714Z,8.43
2024-03-07T00:21:01.818Z,9.20
2024-03-07T00:23:33.274Z,7.90
2024-03-07T00:26:07.073Z,10.93
2024-03-07T00:28:40.876Z,10.63
2024-03-07T00:31:11.520Z,10.07
2024-03-07T00:33:53.613Z,10.00
2024-03-07T00:36:31.826Z,9.80
2024-03-07T00:39:02.146Z,8.83
2024-03-07T00:41:37.896Z,9.67
2024-03-07T00:44:10.232Z,9.37
2024-03-07T00:46:40.794Z,9.63
2024-03-07T00:49:11.154Z,9.80
2024-03-07T00:51:41.230Z,9.00
2024-03-07T00:54:14.084Z,9.77
2024-03-07T00:56:46.898Z,9.97
2024-03-07T00:59:17.342Z,8.13
2024-03-07T01:01:47.395Z,7.90
2024-03-07T01:04:17.472Z,10.40
2024-03-07T01:06:48.310Z,9.07
2024-03-07T01:09:20.393Z,8.47
2024-03-07T01:11:53.434Z,11.80
2024-03-07T01:14:23.566Z,11.60
2024-03-07T01:16:53.982Z,12.37
2024-03-07T01:19:24.005Z,13.50
2024-03-07T01:21:54.582Z,11.30
2024-03-07T01:24:24.694Z,10.43
2024-03-07T01:26:57.584Z,12.73
2024-03-07T01:29:27.709Z,14.10
2024-03-07T01:31:58.122Z,12.67
2024-03-07T01:34:28.119Z,11.73
2024-03-07T01:36:58.699Z,10.73
2024-03-07T01:39:29.094Z,12.43
2024-03-07T01:42:02.183Z,15.50
2024-03-07T01:44:32.580Z,12.23
2024-03-07T01:47:04.741Z,14.97
2024-03-07T01:49:35.084Z,13.63
2024-03-07T01:52:07.657Z,14.07
2024-03-07T01:54:39.496Z,12.93
2024-03-07T01:57:12.447Z,12.10
2024-03-07T01:59:42.451Z,16.63
2024-03-07T02:02:13.162Z,16.60
2024-03-07T02:04:43.819Z,16.20
2024-03-07T02:07:14.185Z,13.80
2024-03-07T02:09:45.761Z,10.87
2024-03-07T02:12:18.814Z,13.90
2024-03-07T02:14:49.267Z,18.20
2024-03-07T02:17:20.420Z,13.77
2024-03-07T02:19:50.406Z,15.70
2024-03-07T02:22:24.183Z,15.70
2024-03-07T02:24:54.304Z,17.60
2024-03-07T02:27:25.077Z,12.93
2024-03-07T02:29:55.232Z,16.63
2024-03-07T02:32:26.050Z,14.43
2024-03-07T02:34:56.059Z,15.70
2024-03-07T02:37:29.579Z,16.63
2024-03-07T02:39:59.791Z,15.17
2024-03-07T02:42:30.539Z,17.03
2024-03-07T02:45:01.215Z,17.33
2024-03-07T02:47:31.515Z,16.53
2024-03-07T02:50:01.819Z,23.83
2024-03-07T02:52:34.831Z,20.67
2024-03-07T02:55:06.190Z,17.97
2024-03-07T02:57:36.663Z,18.13
2024-03-07T03:00:14.998Z,17.63
2024-03-07T03:02:45.021Z,18.90
2024-03-07T03:05:16.703Z,19.43
2024-03-07T03:07:54.457Z,20.80
2024-03-07T03:10:28.220Z,20.13
2024-03-07T03:13:01.176Z,18.70
2024-03-07T03:15:32.803Z,20.93
2024-03-07T03:18:05.030Z,17.63
2024-03-07T03:20:40.805Z,19.33
2024-03-07T03:23:20.582Z,20.37
2024-03-07T03:25:52.417Z,20.47
2024-03-07T03:28:23.207Z,20.23
2024-03-07T03:30:54.349Z,22.47
2024-03-07T03:33:24.994Z,20.83
2024-03-07T03:35:56.908Z,23.90
2024-03-07T03:38:29.949Z,19.60
2024-03-07T03:40:59.951Z,18.70
2024-03-07T03:43:31.697Z,17.50
2024-03-07T03:46:03.775Z,18.30
2024-03-07T03:48:34.583Z,18.30
2024-03-07T03:51:04.916Z,18.97
2024-03-07T03:53:37.935Z,19.50
2024-03-07T03:56:09.185Z,19.23
2024-03-07T03:58:39.152Z,18.93
2024-03-07T04:01:14.616Z,21.63
2024-03-07T04:03:48.150Z,21.13
2024-03-07T04:06:19.400Z,20.57
2024-03-07T04:08:53.346Z,18.07
2024-03-07T04:11:23.790Z,18.00
2024-03-07T04:13:53.847Z,19.17
2024-03-07T04:16:24.371Z,18.80
2024-03-07T04:18:54.343Z,20.43
2024-03-07T04:21:27.253Z,21.33
2024-03-07T04:23:59.996Z,22.93
2024-03-07T04:26:30.746Z,22.40
2024-03-07T04:29:00.942Z,22.80
2024-03-07T04:31:30.958Z,22.90
2024-03-07T04:34:01.752Z,25.77
2024-03-07T04:36:33.850Z,25.13
2024-03-07T04:39:07.607Z,28.57
2024-03-07T04:41:38.112Z,29.97
2024-03-07T04:44:08.993Z,37.23
2024-03-07T04:46:43.731Z,47.90
2024-03-07T04:49:13.812Z,36.10
2024-03-07T04:51:44.486Z,28.70
2024-03-07T04:54:17.063Z,59.80
2024-03-07T04:56:47.281Z,42.13
2024-03-07T04:59:17.925Z,52.27
2024-03-07T05:01:48.592Z,45.10
2024-03-07T05:04:19.818Z,46.33
2024-03-07T05:06:50.981Z,54.73
2024-03-07T05:09:27.608Z,39.90
2024-03-07T05:11:59.314Z,32.53
2024-03-07T05:14:29.501Z,50.27
2024-03-07T05:17:12.433Z,24.87
2024-03-07T05:19:42.483Z,41.87
2024-03-07T05:22:16.986Z,26.67
2024-03-07T05:24:51.428Z,42.80
2024-03-07T05:27:22.935Z,32.93
2024-03-07T05:29:53.503Z,38.97
2024-03-07T05:32:28.389Z,28.03
2024-03-07T05:34:58.642Z,23.80
2024-03-07T05:37:29.017Z,18.80
2024-03-07T05:40:04.144Z,15.50
2024-03-07T05:42:34.158Z,13.73
2024-03-07T05:45:04.674Z,11.80
2024-03-07T05:47:34.753Z,13.07
2024-03-07T05:50:05.468Z,10.23
2024-03-07T05:52:38.726Z,12.37
2024-03-07T05:55:13.024Z,14.90
2024-03-07T05:57:44.466Z,14.57
2024-03-07T06:00:17.321Z,12.10
2024-03-07T06:02:47.911Z,13.70
2024-03-07T06:05:18.095Z,15.17
2024-03-07T06:07:48.938Z,15.60
2024-03-07T06:10:25.453Z,12.27
2024-03-07T06:13:05.862Z,12.00
2024-03-07T06:15:42.271Z,11.80
2024-03-07T06:18:12.908Z,12.30
2024-03-07T06:20:43.248Z,8.83
2024-03-07T06:23:14.656Z,11.23
2024-03-07T06:25:55.669Z,10.60
2024-03-07T06:28:25.912Z,9.87
2024-03-07T06:30:55.879Z,9.63
2024-03-07T06:33:27.513Z,9.80
2024-03-07T06:35:57.772Z,7.03
2024-03-07T06:38:27.915Z,9.33
2024-03-07T06:41:00.909Z,10.20
2024-03-07T06:43:30.906Z,11.30
2024-03-07T06:46:00.957Z,12.50
2024-03-07T06:48:31.083Z,8.57
2024-03-07T06:51:01.452Z,8.67
2024-03-07T06:53:31.991Z,11.47
2024-03-07T06:56:04.724Z,11.47
2024-03-07T06:58:34.803Z,10.40
2024-03-07T07:01:08.456Z,13.27
2024-03-07T07:03:39.144Z,10.00
2024-03-07T07:06:10.027Z,8.83
2024-03-07T07:08:40.447Z,9.90
2024-03-07T07:11:13.565Z,9.63
2024-03-07T07:13:44.255Z,9.70
2024-03-07T07:16:14.328Z,9.43
2024-03-07T07:18:44.529Z,12.07
2024-03-07T07:21:17.227Z,13.80
2024-03-07T07:23:47.404Z,14.90
2024-03-07T07:26:20.207Z,18.83
2024-03-07T07:28:52.048Z,27.67
2024-03-07T07:31:22.076Z,21.50
2024-03-07T07:33:52.126Z,57.83
2024-03-07T07:36:22.257Z,49.37
2024-03-07T07:38:52.424Z,32.70
2024-03-07T07:41:26.246Z,27.17
2024-03-07T07:43:56.356Z,20.17
2024-03-07T07:46:26.982Z,21.73
2024-03-07T07:48:57.079Z,17.40
2024-03-07T07:51:28.055Z,24.57
2024-03-07T07:53:58.351Z,16.57
2024-03-07T07:56:32.752Z,21.33
2024-03-07T07:59:02.785Z,30.90
2024-03-07T08:01:33.111Z,80.00
2024-03-07T08:04:03.058Z,65.50
2024-03-07T08:06:33.511Z,67.47
2024-03-07T08:09:03.535Z,94.73
2024-03-07T08:11:36.764Z,120.27
2024-03-07T08:14:07.781Z,77.03
2024-03-07T08:16:37.846Z,40.93
2024-03-07T08:19:10.375Z,19.60
2024-03-07T08:21:40.634Z,21.87
2024-03-07T08:24:12.194Z,21.90
2024-03-07T08:26:45.923Z,19.80
2024-03-07T08:29:16.183Z,23.00
2024-03-07T08:31:46.278Z,23.23
2024-03-07T08:34:16.401Z,21.73
2024-03-07T08:36:48.639Z,24.20
2024-03-07T08:39:20.819Z,21.50
2024-03-07T08:41:54.263Z,22.90
2024-03-07T08:44:24.797Z,31.63
2024-03-07T08:46:55.063Z,28.53
2024-03-07T08:49:25.876Z,29.23
2024-03-07T08:51:57.672Z,21.10
2024-03-07T08:54:28.997Z,24.60
2024-03-07T08:57:01.751Z,24.50
2024-03-07T08:59:31.867Z,24.00
2024-03-07T09:02:03.192Z,25.93
2024-03-07T09:04:33.288Z,24.20
2024-03-07T09:07:03.597Z,24.40
2024-03-07T09:09:33.683Z,22.57
2024-03-07T09:12:09.790Z,23.73
2024-03-07T09:14:43.527Z,29.73
2024-03-07T09:17:15.295Z,26.60
2024-03-07T09:19:45.485Z,19.87
2024-03-07T09:22:15.642Z,29.80
2024-03-07T09:24:45.653Z,25.70
2024-03-07T09:27:21.189Z,25.70
2024-03-07T09:29:54.540Z,19.57
2024-03-07T09:32:25.728Z,16.17
2024-03-07T09:34:56.122Z,22.77
2024-03-07T09:37:27.138Z,16.40
2024-03-07T09:39:57.564Z,20.63
2024-03-07T09:42:31.660Z,15.97
2024-03-07T09:45:05.052Z,19.87
2024-03-07T09:47:35.697Z,18.63
2024-03-07T09:50:09.439Z,18.50
2024-03-07T09:52:40.385Z,19.63
2024-03-07T09:55:12.364Z,18.50
2024-03-07T09:57:46.454Z,22.80
2024-03-07T10:00:28.367Z,23.60
2024-03-07T10:03:02.571Z,18.07
2024-03-07T10:05:34.550Z,19.23
2024-03-07T10:08:04.894Z,17.33
2024-03-07T10:10:34.951Z,23.30
2024-03-07T10:13:10.065Z,20.57
2024-03-07T10:15:41.446Z,24.63
2024-03-07T10:18:11.853Z,20.37
2024-03-07T10:20:43.910Z,20.27
2024-03-07T10:23:14.402Z,22.20
2024-03-07T10:25:45.395Z,23.63
2024-03-07T10:28:19.820Z,20.60
2024-03-07T10:30:51.626Z,21.13
2024-03-07T10:33:21.880Z,23.30
2024-03-07T10:35:53.236Z,19.80
2024-03-07T10:38:23.993Z,19.83
2024-03-07T10:40:57.731Z,19.83
2024-03-07T10:43:34.088Z,17.00
2024-03-07T10:46:08.941Z,18.80
2024-03-07T10:48:43.463Z,17.80
2024-03-07T10:51:23.262Z,17.47
2024-03-07T10:54:03.950Z,15.60
2024-03-07T10:56:44.527Z,16.37
2024-03-07T10:59:22.272Z,15.40
2024-03-07T11:02:13.616Z,14.80
2024-03-07T11:04:46.108Z,16.63
2024-03-07T11:07:16.379Z,15.47
2024-03-07T11:09:48.864Z,13.83
2024-03-07T11:12:20.317Z,16.30
2024-03-07T11:14:54.350Z,15.33
2024-03-07T11:17:25.860Z,17.70
2024-03-07T11:19:56.313Z,18.73
2024-03-07T11:22:36.680Z,17.67
2024-03-07T11:25:12.407Z,20.30
2024-03-07T11:27:44.159Z,19.13
2024-03-07T11:30:22.678Z,19.30
2024-03-07T11:32:55.480Z,22.10
2024-03-07T11:35:37.393Z,17.07
2024-03-07T11:38:12.663Z,17.27
2024-03-07T11:40:50.370Z,17.80
2024-03-07T11:43:20.423Z,16.73
2024-03-07T11:45:59.365Z,17.13
2024-03-07T11:48:29.567Z,18.60
2024-03-07T11:50:59.628Z,17.13
2024-03-07T11:53:29.636Z,17.70
2024-03-07T11:55:59.683Z,16.90
2024-03-07T11:58:33.330Z,20.30
2024-03-07T12:01:12.658Z,14.77
2024-03-07T12:03:44.119Z,15.07
2024-03-07T12:06:18.486Z,15.83
2024-03-07T12:08:50.412Z,14.07
2024-03-07T12:11:20.417Z,15.10
2024-03-07T12:13:50.415Z,14.67
2024-03-07T12:16:29.537Z,13.37
2024-03-07T12:19:01.026Z,14.00
2024-03-07T12:21:33.261Z,15.30
2024-03-07T12:24:03.934Z,13.57
2024-03-07T12:26:33.946Z,14.43
2024-03-07T12:29:13.199Z,15.40
2024-03-07T12:31:43.544Z,15.03
2024-03-07T12:34:13.696Z,14.30
2024-03-07T12:36:49.459Z,14.60
2024-03-07T12:39:34.390Z,14.10
2024-03-07T12:42:06.448Z,8.97
2024-03-07T12:44:49.166Z,12.03
2024-03-07T12:47:22.022Z,14.40
2024-03-07T12:49:52.073Z,13.30
2024-03-07T12:52:22.803Z,14.03
2024-03-07T12:54:53.133Z,11.17
2024-03-07T12:57:24.826Z,12.03
2024-03-07T12:59:54.852Z,11.33
2024-03-07T13:02:31.173Z,12.67
2024-03-07T13:05:02.475Z,13.77
2024-03-07T13:07:34.129Z,13.90
2024-03-07T13:10:04.149Z,12.40
2024-03-07T13:12:35.914Z,12.77
2024-03-07T13:15:08.126Z,13.97
2024-03-07T13:17:41.083Z,13.23
2024-03-07T13:20:15.978Z,13.50
2024-03-07T13:22:48.340Z,12.53
2024-03-07T13:25:21.992Z,13.40
2024-03-07T13:28:00.980Z,16.83
2024-03-07T13:30:32.005Z,14.53
2024-03-07T13:33:04.715Z,12.90
2024-03-07T13:35:35.639Z,13.23
2024-03-07T13:38:06.026Z,11.20
2024-03-07T13:40:40.139Z,12.37
2024-03-07T13:43:13.093Z,12.27
2024-03-07T13:45:45.111Z,14.53
2024-03-07T13:48:19.367Z,13.80
2024-03-07T13:50:57.180Z,12.90
2024-03-07T13:53:35.042Z,13.23
2024-03-07T13:56:37.367Z,12.90
2024-03-07T13:59:44.897Z,11.90
2024-03-07T14:02:35.837Z,13.70
2024-03-07T14:05:50.198Z,27.07
2024-03-07T14:08:46.785Z,14.40
2024-03-07T14:11:47.923Z,11.63
2024-03-07T14:14:44.951Z,13.57
2024-03-07T14:17:46.709Z,12.40
2024-03-07T14:20:54.691Z,14.10
2024-03-07T14:23:41.879Z,14.00
2024-03-07T14:26:49.410Z,14.47
2024-03-07T14:29:27.943Z,12.90
2024-03-07T14:31:58.140Z,12.23
2024-03-07T14:34:41.495Z,12.13
2024-03-07T14:37:24.408Z,12.07
2024-03-07T14:39:57.122Z,11.57
2024-03-07T14:42:27.173Z,12.87
2024-03-07T14:45:03.379Z,10.27
2024-03-07T14:47:35.360Z,13.73
2024-03-07T14:50:05.732Z,9.70
2024-03-07T14:52:41.224Z,13.17
2024-03-07T14:55:14.829Z,13.67
2024-03-07T14:57:47.142Z,13.97
2024-03-07T15:00:34.009Z,12.70
2024-03-07T15:03:07.952Z,15.10
2024-03-07T15:05:38.552Z,13.10
2024-03-07T15:08:12.659Z,12.60
2024-03-07T15:10:47.696Z,13.80
2024-03-07T15:13:19.947Z,13.13
2024-03-07T15:15:49.978Z,12.77
2024-03-07T15:18:20.110Z,12.80
2024-03-07T15:20:50.860Z,13.03
2024-03-07T15:23:24.252Z,13.90
2024-03-07T15:25:54.291Z,14.40
2024-03-07T15:28:25.997Z,11.90
2024-03-07T15:30:55.992Z,13.37
2024-03-07T15:33:26.927Z,13.23
2024-03-07T15:35:57.664Z,13.73
2024-03-07T15:38:30.910Z,13.40
2024-03-07T15:41:04.933Z,13.03
2024-03-07T15:43:35.293Z,13.80
2024-03-07T15:46:05.945Z,14.30
2024-03-07T15:48:37.122Z,14.87
2024-03-07T15:51:09.116Z,15.17
2024-03-07T15:53:42.650Z,14.63
2024-03-07T15:56:15.196Z,13.00
2024-03-07T15:58:46.714Z,14.70
2024-03-07T16:01:18.076Z,13.77
2024-03-07T16:03:48.982Z,14.23
2024-03-07T16:06:20.259Z,12.50
2024-03-07T16:08:53.148Z,18.23
2024-03-07T16:11:26.050Z,13.43
2024-03-07T16:13:57.024Z,11.20
2024-03-07T16:16:26.987Z,14.57
2024-03-07T16:18:58.663Z,14.60
2024-03-07T16:21:28.703Z,13.17
2024-03-07T16:24:02.611Z,12.67
2024-03-07T16:26:37.801Z,14.17
2024-03-07T16:29:08.813Z,12.77
2024-03-07T16:31:40.337Z,13.50
2024-03-07T16:34:10.391Z,15.40
2024-03-07T16:36:40.356Z,12.53
2024-03-07T16:39:13.610Z,13.60
2024-03-07T16:41:44.305Z,13.80
2024-03-07T16:44:15.064Z,12.00
2024-03-07T16:46:45.086Z,11.07
2024-03-07T16:49:15.608Z,13.37
2024-03-07T16:51:45.970Z,13.60
2024-03-07T16:54:18.579Z,13.47
2024-03-07T16:56:48.674Z,11.80
2024-03-07T16:59:19.539Z,16.00
2024-03-07T17:01:50.024Z,13.10
2024-03-07T17:04:20.059Z,17.37
2024-03-07T17:06:50.452Z,13.63
2024-03-07T17:09:23.342Z,15.10
2024-03-07T17:11:53.643Z,14.13
2024-03-07T17:14:24.794Z,11.50
2024-03-07T17:16:57.391Z,12.63
2024-03-07T17:19:27.373Z,11.97
2024-03-07T17:21:57.717Z,13.83
2024-03-07T17:24:31.886Z,15.80
2024-03-07T17:27:03.894Z,13.63
2024-03-07T17:29:34.014Z,13.03
2024-03-07T17:32:06.757Z,13.47
2024-03-07T17:34:37.195Z,11.73
2024-03-07T17:37:08.504Z,11.93
2024-03-07T17:39:41.370Z,13.10
2024-03-07T17:42:12.724Z,11.60
2024-03-07T17:44:42.740Z,13.07
2024-03-07T17:47:12.796Z,13.87
2024-03-07T17:49:43.351Z,10.87
2024-03-07T17:52:14.586Z,12.37
2024-03-07T17:54:48.369Z,12.67
2024-03-07T17:57:18.760Z,11.77
2024-03-07T17:59:49.824Z,12.10
2024-03-07T18:02:21.099Z,10.90
2024-03-07T18:04:53.804Z,10.57
2024-03-07T18:07:24.316Z,12.17
2024-03-07T18:09:57.564Z,13.07
2024-03-07T18:12:27.977Z,12.73
2024-03-07T18:15:08.971Z,12.30
2024-03-07T18:17:46.369Z,9.77
2024-03-07T18:20:17.647Z,10.47
2024-03-07T18:22:52.513Z,10.90
2024-03-07T18:25:26.093Z,12.00
2024-03-07T18:27:57.552Z,13.23
2024-03-07T18:30:31.551Z,14.47
2024-03-07T18:33:05.779Z,10.73
2024-03-07T18:35:38.433Z,16.13
2024-03-07T18:38:10.269Z,13.50
2024-03-07T18:40:43.342Z,12.30
2024-03-07T18:43:15.656Z,13.03
2024-03-07T18:45:46.794Z,11.50
2024-03-07T18:48:17.471Z,15.47
2024-03-07T18:50:50.175Z,14.20
2024-03-07T18:53:21.810Z,13.20
2024-03-07T18:55:55.403Z,15.57
2024-03-07T18:58:27.392Z,15.83
2024-03-07T19:00:58.711Z,14.97
2024-03-07T19:03:32.019Z,10.67
2024-03-07T19:06:02.037Z,15.50
2024-03-07T19:08:35.367Z,15.67
2024-03-07T19:11:08.229Z,10.97
2024-03-07T19:13:38.902Z,13.00
2024-03-07T19:16:10.537Z,14.00
2024-03-07T19:18:41.612Z,15.60
2024-03-07T19:21:13.625Z,13.77
2024-03-07T19:23:47.394Z,15.17
2024-03-07T19:26:21.726Z,18.60
2024-03-07T19:28:52.052Z,13.00
2024-03-07T19:31:22.219Z,19.40
2024-03-07T19:33:53.740Z,16.67
2024-03-07T19:36:26.056Z,13.53
2024-03-07T19:38:57.097Z,12.07
2024-03-07T19:41:30.322Z,15.10
2024-03-07T19:44:03.570Z,13.90
2024-03-07T19:46:33.967Z,12.77
2024-03-07T19:49:07.286Z,31.77
2024-03-07T19:51:38.855Z,15.97
2024-03-07T19:54:10.782Z,11.50
2024-03-07T19:56:43.525Z,11.13
2024-03-07T19:59:14.243Z,10.27
2024-03-07T20:01:45.386Z,10.70
2024-03-07T20:04:15.744Z,13.70
2024-03-07T20:06:46.609Z,14.47
2024-03-07T20:09:18.996Z,13.27
2024-03-07T20:11:53.057Z,14.17
2024-03-07T20:14:23.641Z,12.80
2024-03-07T20:16:54.022Z,12.90
2024-03-07T20:19:24.414Z,12.50
2024-03-07T20:21:55.358Z,10.70
2024-03-07T20:24:27.121Z,16.80
2024-03-07T20:27:02.109Z,11.70
2024-03-07T20:29:33.008Z,10.93
2024-03-07T20:32:03.253Z,12.10
2024-03-07T20:34:33.186Z,11.30
2024-03-07T20:37:03.809Z,14.90
2024-03-07T20:39:35.411Z,12.33
2024-03-07T20:42:10.623Z,11.67
2024-03-07T20:44:41.908Z,13.63
2024-03-07T20:47:11.961Z,13.40
2024-03-07T20:49:42.071Z,14.87
2024-03-07T20:52:21.336Z,12.37
2024-03-07T20:54:51.589Z,12.43
2024-03-07T20:57:25.432Z,13.83
2024-03-07T20:59:56.396Z,13.30
2024-03-07T21:02:27.453Z,22.07
2024-03-07T21:04:58.423Z,11.60
2024-03-07T21:07:28.345Z,13.23
2024-03-07T21:09:58.596Z,17.47
2024-03-07T21:12:31.182Z,13.00
2024-03-07T21:15:01.469Z,12.23
2024-03-07T21:17:32.896Z,13.83
2024-03-07T21:20:12.634Z,11.90
2024-03-07T21:22:43.684Z,14.03
2024-03-07T21:25:17.625Z,12.33
2024-03-07T21:27:51.680Z,11.13
2024-03-07T21:30:26.660Z,14.60
2024-03-07T21:32:57.786Z,14.37
2024-03-07T21:35:28.052Z,16.07
2024-03-07T21:37:58.655Z,11.77
2024-03-07T21:40:28.750Z,14.90
2024-03-07T21:43:04.828Z,12.87
2024-03-07T21:45:38.121Z,12.30
2024-03-07T21:48:10.934Z,14.90
2024-03-07T21:50:43.868Z,13.97
2024-03-07T21:53:15.839Z,18.77
2024-03-07T21:55:45.782Z,12.67
2024-03-07T21:58:20.648Z,13.80
2024-03-07T22:00:51.724Z,13.77
2024-03-07T22:03:21.764Z,16.07
2024-03-07T22:05:52.295Z,14.23
2024-03-07T22:08:22.308Z,18.30
2024-03-07T22:10:52.911Z,14.27
2024-03-07T22:13:25.533Z,15.30
2024-03-07T22:15:57.956Z,16.00
2024-03-07T22:18:28.358Z,13.63
2024-03-07T22:21:00.059Z,15.03
2024-03-07T22:23:30.101Z,17.33
2024-03-07T22:26:01.975Z,14.60
2024-03-07T22:28:34.747Z,14.30
2024-03-07T22:31:05.054Z,13.97
2024-03-07T22:33:35.969Z,15.73
2024-03-07T22:36:10.144Z,15.00
2024-03-07T22:38:40.229Z,13.90
2024-03-07T22:41:10.208Z,14.00
2024-03-07T22:43:43.254Z,17.07
2024-03-07T22:46:13.673Z,17.50
2024-03-07T22:48:44.162Z,15.47
2024-03-07T22:51:14.411Z,18.10
2024-03-07T22:53:44.874Z,15.50
2024-03-07T22:56:17.205Z,17.10
2024-03-07T22:58:51.216Z,18.60
2024-03-07T23:01:22.128Z,15.90
2024-03-07T23:03:52.119Z,17.73
2024-03-07T23:06:22.417Z,15.80
2024-03-07T23:08:52.857Z,18.53
2024-03-07T23:11:23.430Z,18.67
2024-03-07T23:13:56.013Z,17.57
2024-03-07T23:16:28.961Z,13.97
2024-03-07T23:19:00.303Z,14.90
2024-03-07T23:21:30.748Z,19.70
2024-03-07T23:24:00.887Z,17.70
2024-03-07T23:26:31.689Z,17.97
2024-03-07T23:29:04.849Z,16.07
2024-03-07T23:31:34.849Z,19.20
2024-03-07T23:34:04.963Z,16.40
2024-03-07T23:36:34.998Z,15.97
2024-03-07T23:39:06.218Z,19.67
2024-03-07T23:41:36.234Z,19.00
2024-03-07T23:44:09.304Z,16.73
2024-03-07T23:46:39.348Z,16.90
2024-03-07T23:49:09.886Z,16.97
2024-03-07T23:51:39.981Z,18.80
2024-03-07T23:54:13.026Z,18.03
2024-03-07T23:56:43.316Z,16.40
2024-03-07T23:59:16.223Z,17.10
